Time;durP1;ratioP1;P1;durP2;ratioP2;P2;SDS_P1;SDS_P2;PMS_P1;PMS_P2;Temp;Humidity;BMP_temperature;BMP_pressure;BME280_temperature;BME280_humidity;BME280_pressure;Samples;Min_cycle;Max_cycle;Signal;HPM_P1;HPM_P2
2021/04/20 00:01:35;;;;;;;25.55;15.60;;;;;;;-0.66;94.26;98681.53;4986369;28;20097;-73
2021/04/20 00:04:02;;;;;;;22.83;12.65;;;;;;;-0.59;94.09;98689.28;4988388;28;20499;-73
2021/04/20 00:06:31;;;;;;;25.10;13.98;;;;;;;-0.50;94.20;98684.25;4988157;28;20026;-75
2021/04/20 00:08:56;;;;;;;23.85;13.23;;;;;;;-0.46;94.32;98683.41;4989516;28;20502;-74
2021/04/20 00:11:21;;;;;;;23.60;11.43;;;;;;;-0.54;94.01;98674.78;4988363;28;20030;-74
2021/04/20 00:13:47;;;;;;;21.67;11.63;;;;;;;-0.52;94.08;98674.81;4989238;28;20518;-73
2021/04/20 00:16:12;;;;;;;23.10;12.70;;;;;;;-0.50;94.56;98671.41;4989078;28;20455;-73
2021/04/20 00:18:40;;;;;;;19.98;12.13;;;;;;;-0.56;94.39;98676.47;4988324;28;20116;-73
2021/04/20 00:21:05;;;;;;;23.88;12.90;;;;;;;-0.57;94.11;98672.19;4989137;28;20368;-73
2021/04/20 00:23:31;;;;;;;21.35;13.07;;;;;;;-0.62;94.11;98668.75;4988065;28;20035;-74
2021/04/20 00:25:56;;;;;;;25.55;14.27;;;;;;;-0.63;94.49;98677.31;4989538;28;20030;-74
2021/04/20 00:28:26;;;;;;;22.98;13.38;;;;;;;-0.70;94.25;98665.25;4987861;28;20408;-73
2021/04/20 00:30:52;;;;;;;20.85;12.57;;;;;;;-0.80;94.13;98666.03;4989323;28;20548;-73
2021/04/20 00:33:20;;;;;;;26.88;13.70;;;;;;;-0.88;94.55;98667.66;4986111;28;20030;-74
2021/04/20 00:35:48;;;;;;;24.23;12.90;;;;;;;-0.88;94.44;98670.22;4988316;28;20058;-74
2021/04/20 00:38:14;;;;;;;20.13;11.68;;;;;;;-0.88;94.28;98665.94;4988909;28;20420;-74
2021/04/20 00:40:40;;;;;;;23.00;11.20;;;;;;;-0.87;94.24;98659.13;4988199;28;20041;-74
2021/04/20 00:43:05;;;;;;;21.42;12.07;;;;;;;-0.90;94.03;98662.50;4970920;28;20117;-73
2021/04/20 00:45:34;;;;;;;25.55;13.40;;;;;;;-0.84;94.29;98664.28;4969944;28;20027;-73
2021/04/20 00:48:02;;;;;;;22.38;12.20;;;;;;;-0.89;94.50;98664.22;4984438;28;20026;-73
2021/04/20 00:50:28;;;;;;;;;;;;;;;-0.78;94.32;98656.63;4988509;28;20038;-73
2021/04/20 00:52:59;;;;;;;23.15;12.07;;;;;;;-0.77;94.48;98651.53;4987017;28;20008;-74
2021/04/20 00:55:26;;;;;;;24.67;12.65;;;;;;;-0.71;94.37;98658.38;4987055;28;20065;-73
2021/04/20 00:57:51;;;;;;;25.33;12.95;;;;;;;-0.82;94.47;98650.63;4983350;28;20039;-73
2021/04/20 01:00:19;;;;;;;26.98;13.25;;;;;;;-0.81;94.54;98666.88;4986419;28;20037;-73
2021/04/20 01:02:47;;;;;;;24.65;13.50;;;;;;;-0.89;94.56;98653.97;4971014;28;20027;-73
2021/04/20 01:05:16;;;;;;;22.38;11.20;;;;;;;-0.96;94.14;98661.63;4987617;28;20026;-73
2021/04/20 01:07:45;;;;;;;31.67;15.00;;;;;;;-0.92;94.61;98660.81;4990747;28;20311;-73
2021/04/20 01:10:12;;;;;;;28.63;13.63;;;;;;;-0.91;94.64;98652.22;4990794;28;20034;-75
2021/04/20 01:12:42;;;;;;;26.27;13.75;;;;;;;-0.87;94.34;98659.97;4991658;28;20620;-73
2021/04/20 01:15:10;;;;;;;30.98;14.10;;;;;;;-0.88;94.47;98652.25;4997713;28;20117;-73
2021/04/20 01:17:35;;;;;;;27.27;13.25;;;;;;;-0.96;94.65;98643.66;4992795;28;20031;-74
2021/04/20 01:20:05;;;;;;;28.73;14.60;;;;;;;-0.93;94.58;98646.25;4990863;28;20427;-74
2021/04/20 01:22:34;;;;;;;38.67;17.13;;;;;;;-0.92;94.69;98645.41;4991473;28;20129;-73
2021/04/20 01:25:02;;;;;;;35.63;15.85;;;;;;;-0.94;94.38;98649.66;4991819;28;20026;-73
2021/04/20 01:27:30;;;;;;;42.17;16.42;;;;;;;-0.90;94.57;98649.66;4981976;28;20030;-75
2021/04/20 01:29:56;;;;;;;41.00;16.50;;;;;;;-0.86;94.90;98651.44;4996343;28;20096;-73
2021/04/20 01:32:25;;;;;;;29.02;12.75;;;;;;;-0.86;94.30;98656.56;4993570;28;20030;-74
2021/04/20 01:34:52;;;;;;;26.25;14.27;;;;;;;-0.78;94.37;98648.94;4985468;28;20030;-74
2021/04/20 01:37:18;;;;;;;24.10;14.65;;;;;;;-0.69;94.29;98654.13;4991976;28;20023;-74
2021/04/20 01:39:45;;;;;;;28.88;13.95;;;;;;;-0.57;94.75;98651.66;4992119;28;20053;-74
2021/04/20 01:42:12;;;;;;;22.80;12.43;;;;;;;-0.53;94.83;98643.13;4990529;28;20049;-74
2021/04/20 01:44:38;;;;;;;25.50;12.23;;;;;;;-0.48;94.20;98648.31;4990618;28;20038;-74
2021/04/20 01:47:04;;;;;;;26.52;14.43;;;;;;;-0.43;94.49;98644.91;4990664;28;20049;-74
2021/04/20 01:49:30;;;;;;;25.70;12.35;;;;;;;-0.47;94.39;98643.19;4992024;28;20034;-74
2021/04/20 01:51:55;;;;;;;23.58;12.88;;;;;;;-0.51;94.64;98645.72;4988968;28;20501;-74
2021/04/20 01:54:23;;;;;;;29.77;15.48;;;;;;;-0.54;94.74;98646.53;4991899;28;20034;-74
2021/04/20 01:56:50;;;;;;;24.58;12.98;;;;;;;-0.61;94.55;98649.91;4990400;28;20036;-74
2021/04/20 01:59:16;;;;;;;32.67;14.68;;;;;;;-0.63;94.65;98646.50;4992410;28;20388;-74
2021/04/20 02:01:45;;;;;;;30.48;15.10;;;;;;;-0.66;94.63;98649.03;4990488;28;20137;-74
2021/04/20 02:04:10;;;;;;;26.55;13.40;;;;;;;-0.66;94.43;98648.16;4990514;28;20029;-74
2021/04/20 02:06:36;;;;;;;30.58;13.63;;;;;;;-0.67;94.40;98649.00;4995184;28;20026;-74
2021/04/20 02:09:05;;;;;;;38.97;14.20;;;;;;;-0.66;94.75;98645.59;4992902;28;20424;-74
2021/04/20 02:11:31;;;;;;;30.05;13.35;;;;;;;-0.69;94.49;98649.00;4991871;28;20034;-74
2021/04/20 02:14:00;;;;;;;44.95;13.38;;;;;;;-0.65;94.16;98653.31;4989579;28;20061;-73
2021/04/20 02:16:26;;;;;;;45.03;13.73;;;;;;;-0.62;94.38;98652.47;4990463;28;20092;-73
2021/04/20 02:18:55;;;;;;;35.05;14.05;;;;;;;-0.62;94.85;98647.34;4991200;28;20514;-73
2021/04/20 02:21:21;;;;;;;47.28;13.43;;;;;;;-0.61;94.45;98643.94;4989902;28;20030;-73
2021/04/20 02:23:47;;;;;;;42.78;14.65;;;;;;;-0.53;94.70;98647.41;4990009;28;20037;-73
2021/04/20 02:26:18;;;;;;;44.58;14.25;;;;;;;-0.51;94.87;98646.56;5005098;28;20120;-73
2021/04/20 02:28:44;;;;;;;37.17;13.73;;;;;;;-0.49;94.81;98650.00;4991369;28;20030;-73
2021/04/20 02:31:10;;;;;;;38.20;14.60;;;;;;;-0.48;94.83;98650.88;4995905;28;20052;-74
2021/04/20 02:33:36;;;;;;;49.08;14.95;;;;;;;-0.49;94.90;98639.75;4996950;28;20049;-74
2021/04/20 02:36:04;;;;;;;55.22;15.70;;;;;;;-0.48;94.60;98644.03;5002330;28;20127;-73
2021/04/20 02:38:30;;;;;;;31.00;12.13;;;;;;;-0.52;94.33;98642.28;5011166;28;20029;-74
2021/04/20 02:41:00;;;;;;;37.33;13.93;;;;;;;-0.53;94.74;98645.69;5009744;28;20256;-74
2021/04/20 02:43:26;;;;;;;41.30;15.55;;;;;;;-0.52;94.75;98644.00;5009605;28;20507;-74
2021/04/20 02:45:54;;;;;;;47.50;16.70;;;;;;;-0.54;94.87;98636.28;5004924;28;20291;-73
2021/04/20 02:48:19;;;;;;;;;;;;;;;-0.59;94.77;98637.94;4993528;28;20038;-73
2021/04/20 02:50:46;;;;;;;28.63;13.35;;;;;;;-0.62;94.80;98642.22;5008601;28;20306;-74
2021/04/20 02:53:14;;;;;;;37.25;14.70;;;;;;;-0.59;94.39;98639.63;4990368;28;20030;-74
2021/04/20 02:55:40;;;;;;;55.45;15.20;;;;;;;-0.63;94.87;98638.78;4995176;28;20037;-73
2021/04/20 02:58:13;;;;;;;37.15;15.68;;;;;;;-0.61;94.89;98637.06;4999303;28;20030;-73
2021/04/20 03:00:42;;;;;;;26.58;11.50;;;;;;;-0.65;94.79;98634.47;4996405;28;20041;-73
2021/04/20 03:03:08;;;;;;;36.78;14.20;;;;;;;-0.62;95.22;98635.38;4988920;28;20047;-73
2021/04/20 03:05:34;;;;;;;47.45;13.98;;;;;;;-0.59;94.57;98635.38;4996770;28;20460;-73
2021/04/20 03:08:00;;;;;;;60.67;15.27;;;;;;;-0.59;94.96;98635.38;4999011;28;20022;-73
2021/04/20 03:10:28;;;;;;;38.85;11.82;;;;;;;-0.57;95.16;98636.25;4998556;28;20337;-73
2021/04/20 03:12:55;;;;;;;34.42;13.88;;;;;;;-0.56;94.70;98632.81;4990327;28;20026;-74
2021/04/20 03:15:23;;;;;;;41.15;16.00;;;;;;;-0.61;94.88;98636.22;4989177;28;20030;-74
2021/04/20 03:17:48;;;;;;;43.53;14.25;;;;;;;-0.66;95.03;98635.31;4989406;28;20112;-74
2021/04/20 03:20:16;;;;;;;27.92;12.38;;;;;;;-0.67;94.50;98637.03;4988879;28;20133;-74
2021/04/20 03:22:42;;;;;;;32.72;12.25;;;;;;;-0.71;94.72;98627.59;4990862;28;20112;-74
2021/04/20 03:25:15;;;;;;;37.72;16.17;;;;;;;-0.73;94.62;98631.84;4989354;28;20037;-74
2021/04/20 03:27:47;;;;;;;32.22;14.35;;;;;;;-0.71;94.73;98632.72;4988705;28;20041;-74
2021/04/20 03:30:15;;;;;;;35.10;15.10;;;;;;;-0.69;94.48;98625.03;4990022;28;20029;-74
2021/04/20 03:32:45;;;;;;;55.15;16.42;;;;;;;-0.64;94.77;98626.78;4989540;28;20026;-74
2021/04/20 03:35:16;;;;;;;42.78;16.23;;;;;;;-0.61;94.31;98621.66;4989174;28;20096;-74
2021/04/20 03:37:51;;;;;;;39.00;15.30;;;;;;;-0.58;94.69;98623.38;4995815;28;20403;-74
2021/04/20 03:40:19;;;;;;;44.35;17.02;;;;;;;-0.55;94.48;98624.28;4989844;28;20053;-74
2021/04/20 03:42:49;;;;;;;;;;;;;;;-0.50;94.92;98626.88;4990537;28;20030;-74
2021/04/20 03:45:21;;;;;;;34.42;15.60;;;;;;;-0.48;94.45;98617.47;4989877;28;19949;-74
2021/04/20 03:48:08;;;;;;;58.55;16.38;;;;;;;-0.49;94.87;98608.06;4986104;28;20356;-74
2021/04/20 03:50:37;;;;;;;40.67;15.77;;;;;;;-0.48;94.55;98608.06;4990419;28;20037;-73
2021/04/20 03:53:06;;;;;;;36.63;14.15;;;;;;;-0.42;94.58;98610.66;4990709;28;20034;-74
2021/04/20 03:55:34;;;;;;;42.42;15.85;;;;;;;-0.42;94.91;98609.78;4991699;28;20054;-73
2021/04/20 03:58:01;;;;;;;31.55;15.55;;;;;;;-0.39;94.61;98612.38;4992478;28;20026;-74
2021/04/20 04:00:28;;;;;;;;;;;;;;;-0.38;94.57;98620.09;4989811;28;20041;-73
2021/04/20 04:02:55;;;;;;;37.33;14.57;;;;;;;-0.35;94.69;98616.69;4990255;28;19972;-74
2021/04/20 04:05:24;;;;;;;40.80;17.30;;;;;;;-0.38;94.86;98617.53;4989040;28;20116;-74
2021/04/20 04:07:53;;;;;;;39.22;16.00;;;;;;;-0.40;94.63;98619.22;4989301;28;20041;-74
2021/04/20 04:10:19;;;;;;;45.55;15.32;;;;;;;-0.38;94.69;98611.53;4990007;28;20049;-73
2021/04/20 04:12:53;;;;;;;33.50;14.85;;;;;;;-0.40;94.99;98610.66;4990602;28;20054;-74
2021/04/20 04:15:21;;;;;;;50.45;14.73;;;;;;;-0.38;94.77;98617.53;4987147;28;20562;-74
2021/04/20 04:17:46;;;;;;;;;;;;;;;-0.39;94.30;98618.38;4992486;28;20042;-74
2021/04/20 04:20:14;;;;;;;24.05;12.25;;;;;;;-0.41;94.70;98620.09;4987239;28;19925;-74
2021/04/20 04:22:48;;;;;;;26.30;13.60;;;;;;;-0.44;94.71;98614.91;4986992;28;20056;-74
2021/04/20 04:25:20;;;;;;;31.17;14.57;;;;;;;-0.46;94.24;98613.22;4999846;28;20489;-74
2021/04/20 04:27:50;;;;;;;23.85;12.05;;;;;;;-0.42;94.77;98617.50;4992199;28;20480;-74
2021/04/20 04:30:16;;;;;;;47.03;14.32;;;;;;;-0.38;94.92;98622.69;4987804;28;20113;-74
2021/04/20 04:32:44;;;;;;;52.92;16.25;;;;;;;-0.39;94.68;98617.53;5005540;28;20489;-74
2021/04/20 04:35:10;;;;;;;45.95;15.93;;;;;;;-0.34;94.51;98617.56;4987335;28;20034;-74
2021/04/20 04:37:39;;;;;;;44.20;14.50;;;;;;;-0.26;94.93;98621.88;4999985;28;20041;-74
2021/04/20 04:40:08;;;;;;;50.25;15.40;;;;;;;-0.17;94.66;98626.22;4991604;28;20046;-74
2021/04/20 04:42:35;;;;;;;56.65;15.02;;;;;;;-0.13;94.89;98620.22;4987558;28;20057;-74
2021/04/20 04:45:04;;;;;;;42.70;16.63;;;;;;;-0.09;94.46;98620.25;4989061;28;20034;-73
2021/04/20 04:47:31;;;;;;;32.58;15.13;;;;;;;0.04;95.21;98623.75;4988022;28;20030;-74
2021/04/20 04:50:02;;;;;;;50.72;15.88;;;;;;;0.14;94.88;98622.94;4988196;28;20038;-74
2021/04/20 04:52:30;;;;;;;36.90;14.68;;;;;;;0.23;95.18;98625.53;4988921;28;20447;-73
2021/04/20 04:54:59;;;;;;;36.08;17.42;;;;;;;0.28;94.35;98620.44;4987865;28;20030;-74
2021/04/20 04:57:26;;;;;;;38.05;14.77;;;;;;;0.40;94.53;98627.31;4987404;28;20643;-73
2021/04/20 04:59:55;;;;;;;54.30;18.67;;;;;;;0.41;94.62;98631.59;4987377;28;20038;-74
2021/04/20 05:02:21;;;;;;;44.85;17.27;;;;;;;0.39;94.75;98628.16;4987246;28;20022;-74
2021/04/20 05:04:46;;;;;;;32.88;14.30;;;;;;;0.46;94.90;98630.75;4989260;28;20030;-74
2021/04/20 05:07:12;;;;;;;45.25;17.27;;;;;;;0.50;94.56;98632.47;4977250;28;20037;-74
2021/04/20 05:09:37;;;;;;;34.08;15.27;;;;;;;0.49;94.90;98629.91;4979713;28;20042;-74
2021/04/20 05:12:04;;;;;;;29.45;14.27;;;;;;;0.52;94.14;98640.22;4986968;28;20077;-74
2021/04/20 05:14:30;;;;;;;26.77;13.20;;;;;;;0.53;94.67;98627.34;4990741;28;20034;-74
2021/04/20 05:16:56;;;;;;;35.63;15.52;;;;;;;0.50;93.94;98639.34;4986690;28;20040;-74
2021/04/20 05:19:32;;;;;;;30.48;13.75;;;;;;;0.54;94.59;98633.34;4988120;28;20030;-74
2021/04/20 05:21:59;;;;;;;26.55;14.05;;;;;;;0.55;94.08;98637.66;4995174;28;20077;-74
2021/04/20 05:24:25;;;;;;;41.30;16.48;;;;;;;0.53;94.15;98637.63;4986733;28;20042;-73
2021/04/20 05:26:51;;;;;;;33.25;15.95;;;;;;;0.39;94.39;98638.47;4976050;28;20376;-74
2021/04/20 05:29:17;;;;;;;36.95;15.98;;;;;;;0.53;93.92;98640.22;4975421;28;20038;-74
2021/04/20 05:31:43;;;;;;;36.97;16.27;;;;;;;0.65;94.50;98641.94;4987215;28;20027;-74
2021/04/20 05:34:08;;;;;;;42.50;16.58;;;;;;;0.65;94.26;98641.94;4985786;28;20047;-74
2021/04/20 05:36:35;;;;;;;58.08;16.25;;;;;;;0.61;93.68;98638.50;4987434;28;20096;-77
2021/04/20 05:39:09;;;;;;;29.35;14.50;;;;;;;0.75;93.97;98638.56;5000075;28;20030;-75
2021/04/20 05:41:36;;;;;;;32.28;13.60;;;;;;;0.89;94.17;98638.59;4993499;28;20579;-74
2021/04/20 05:44:04;;;;;;;26.10;12.98;;;;;;;1.04;94.16;98631.72;4984857;28;20626;-75
2021/04/20 05:46:30;;;;;;;65.40;26.60;;;;;;;0.97;93.79;98630.00;4984123;28;20425;-75
2021/04/20 05:48:59;;;;;;;48.17;23.10;;;;;;;1.10;93.89;98632.56;4990688;28;20432;-75
2021/04/20 05:51:24;;;;;;;38.30;15.68;;;;;;;1.20;93.70;98621.44;4973323;28;20079;-75
2021/04/20 05:53:53;;;;;;;46.10;18.42;;;;;;;1.36;93.78;98629.16;4973278;28;20362;-75
2021/04/20 05:56:20;;;;;;;46.90;18.52;;;;;;;1.54;93.77;98622.25;4971356;28;20058;-75
2021/04/20 05:58:46;;;;;;;45.30;19.23;;;;;;;1.62;93.59;98629.13;4971931;28;20042;-75
2021/04/20 06:01:12;;;;;;;38.25;18.23;;;;;;;1.65;93.73;98626.53;4971492;28;20031;-75
2021/04/20 06:03:42;;;;;;;32.22;16.17;;;;;;;1.75;93.22;98633.38;4972432;28;20026;-75
2021/04/20 06:06:12;;;;;;;49.72;17.50;;;;;;;1.56;93.19;98631.69;4970701;28;20058;-74
2021/04/20 06:08:38;;;;;;;41.53;18.50;;;;;;;1.63;93.23;98628.25;4968302;28;20066;-75
2021/04/20 06:11:06;;;;;;;41.65;19.15;;;;;;;1.43;93.41;98645.44;4969410;28;20050;-74
2021/04/20 06:13:33;;;;;;;51.90;18.15;;;;;;;1.50;93.03;98638.59;4969717;28;20081;-75
2021/04/20 06:16:01;;;;;;;55.75;18.63;;;;;;;1.67;92.89;98639.44;4977154;28;20551;-74
2021/04/20 06:18:27;;;;;;;47.40;17.67;;;;;;;1.75;92.24;98641.13;4984887;28;20121;-74
2021/04/20 06:20:58;;;;;;;35.90;17.20;;;;;;;1.97;93.02;98643.66;4979893;28;20026;-74
2021/04/20 06:23:24;;;;;;;41.53;18.25;;;;;;;2.31;92.18;98637.50;4970314;28;20029;-74
2021/04/20 06:25:55;;;;;;;37.72;16.52;;;;;;;2.50;92.01;98640.00;4969242;28;20035;-74
2021/04/20 06:28:21;;;;;;;37.08;16.83;;;;;;;2.65;91.08;98639.91;4971370;28;20077;-75
2021/04/20 06:30:47;;;;;;;50.75;17.08;;;;;;;2.41;91.17;98640.91;4971007;28;20031;-74
2021/04/20 06:33:12;;;;;;;41.50;17.85;;;;;;;2.60;90.41;98644.28;4981116;28;20552;-75
2021/04/20 06:35:38;;;;;;;44.58;16.88;;;;;;;2.46;90.34;98644.31;4980935;28;20031;-75
2021/04/20 06:38:05;;;;;;;26.80;12.45;;;;;;;2.68;90.65;98638.19;4988530;28;20034;-74
2021/04/20 06:40:40;;;;;;;48.20;17.13;;;;;;;2.54;90.63;98634.81;4990450;28;20097;-74
2021/04/20 06:43:12;;;;;;;26.25;12.10;;;;;;;2.88;90.96;98645.81;4988843;28;20053;-75
2021/04/20 06:45:43;;;;;;;29.35;13.70;;;;;;;2.96;91.10;98649.19;4989925;28;20025;-76
2021/04/20 06:48:35;;;;;;;43.53;16.10;;;;;;;3.00;90.36;98648.31;4988439;28;20046;-71
2021/04/20 06:51:03;;;;;;;73.28;15.70;;;;;;;2.81;90.20;98644.97;4990289;28;20030;-71
2021/04/20 06:53:37;;;;;;;53.13;15.07;;;;;;;2.92;89.76;98649.22;4991861;28;20057;-72
2021/04/20 06:56:29;;;;;;;41.75;17.42;;;;;;;3.28;89.50;98648.09;4990558;28;20026;-72
2021/04/20 06:59:11;;;;;;;35.30;15.85;;;;;;;3.89;88.78;98651.00;4989198;28;20093;-71
2021/04/20 07:01:46;;;;;;;26.75;16.15;;;;;;;4.46;88.19;98648.63;4983488;28;20026;-77
2021/04/20 07:04:31;;;;;;;34.42;13.82;;;;;;;3.88;87.27;98646.69;4989218;28;20081;-76
2021/04/20 07:07:14;;;;;;;29.27;15.95;;;;;;;3.90;87.58;98637.19;4997790;28;20022;-75
2021/04/20 07:09:45;;;;;;;25.33;12.15;;;;;;;4.07;87.67;98644.78;5008348;28;20037;-76
2021/04/20 07:12:16;;;;;;;32.83;13.20;;;;;;;3.92;86.97;98640.63;4989769;28;20110;-74
2021/04/20 07:14:49;;;;;;;26.77;13.52;;;;;;;3.73;86.75;98642.53;4986644;28;20031;-75
2021/04/20 07:17:36;;;;;;;30.30;13.55;;;;;;;4.13;85.70;98636.94;4988486;28;20121;-76
2021/04/20 07:20:20;;;;;;;;;;;;;;;4.83;84.77;98641.22;4988390;28;20029;-75
2021/04/20 07:22:54;;;;;;;23.70;13.70;;;;;;;5.27;82.59;98636.22;4986908;28;19976;-75
2021/04/20 07:25:30;;;;;;;25.63;15.82;;;;;;;5.54;80.31;98628.88;4983976;28;20433;-75
2021/04/20 07:28:33;;;;;;;25.85;14.75;;;;;;;5.53;80.28;98632.34;4974881;28;20038;-76
2021/04/20 07:31:35;;;;;;;25.02;16.38;;;;;;;5.68;79.97;98623.44;4975303;28;20081;-75
2021/04/20 07:34:46;;;;;;;23.38;15.15;;;;;;;6.16;80.08;98624.28;4972893;28;20030;-75
2021/04/20 07:37:36;;;;;;;27.27;13.80;;;;;;;7.06;77.39;98624.06;4961462;28;20058;-77
2021/04/20 07:40:26;;;;;;;30.23;16.13;;;;;;;6.88;75.88;98621.88;4977297;28;20098;-77
2021/04/20 07:42:55;;;;;;;22.73;13.38;;;;;;;7.21;78.05;98620.25;4991437;28;20045;-75
2021/04/20 07:45:35;;;;;;;23.55;13.73;;;;;;;7.28;75.66;98619.22;4974609;28;20496;-75
2021/04/20 07:48:12;;;;;;;31.98;16.75;;;;;;;7.28;75.70;98618.38;4987925;28;20483;-75
2021/04/20 07:50:47;;;;;;;27.90;15.10;;;;;;;8.08;75.38;98611.09;4987179;28;20066;-76
2021/04/20 07:53:23;;;;;;;21.20;12.85;;;;;;;8.37;75.33;98607.69;4985711;28;20508;-76
2021/04/20 07:55:56;;;;;;;21.63;12.90;;;;;;;8.60;74.90;98601.78;4985220;28;20097;-76
2021/04/20 07:58:27;;;;;;;27.27;16.23;;;;;;;8.51;75.28;98602.06;4988783;28;20080;-77
2021/04/20 08:01:12;;;;;;;25.08;15.30;;;;;;;8.55;74.63;98606.31;4986784;28;20498;-76
2021/04/20 08:03:58;;;;;;;24.63;15.30;;;;;;;8.55;73.32;98597.63;4977541;28;20030;-76
2021/04/20 08:06:28;;;;;;;28.92;17.38;;;;;;;8.51;74.83;98599.47;4984434;28;20093;-76
2021/04/20 08:09:01;;;;;;;24.65;14.43;;;;;;;9.21;73.88;98601.66;4969822;28;20049;-78
2021/04/20 08:11:34;;;;;;;23.40;14.55;;;;;;;9.31;75.17;98593.50;4969512;28;20038;-77
2021/04/20 08:14:18;;;;;;;30.80;18.10;;;;;;;9.68;72.63;98590.50;4988492;28;20052;-77
2021/04/20 08:17:21;;;;;;;32.15;18.30;;;;;;;10.47;70.24;98586.81;4989666;28;20034;-77
2021/04/20 08:19:55;;;;;;;30.45;17.40;;;;;;;10.52;71.09;98590.13;4993323;28;20309;-77
2021/04/20 08:22:20;;;;;;;30.73;18.58;;;;;;;10.84;71.57;98583.69;4992172;28;20061;-77
2021/04/20 08:24:56;;;;;;;38.70;19.77;;;;;;;11.11;69.42;98584.34;4986535;28;20117;-77
2021/04/20 08:27:30;;;;;;;32.42;18.55;;;;;;;11.07;69.81;98577.53;4987569;28;20038;-78
2021/04/20 08:30:02;;;;;;;33.55;19.38;;;;;;;11.38;68.56;98571.88;4990355;28;20118;-78
2021/04/20 08:32:29;;;;;;;35.58;19.92;;;;;;;11.55;67.33;98572.91;4981644;28;20092;-77
2021/04/20 08:35:01;;;;;;;36.63;22.73;;;;;;;11.64;66.73;98575.13;4988644;28;20029;-77
2021/04/20 08:37:38;;;;;;;33.97;21.27;;;;;;;11.43;66.44;98572.56;4991460;28;20062;-77
2021/04/20 08:40:15;;;;;;;37.85;21.88;;;;;;;11.81;66.17;98566.56;4993041;28;20030;-77
2021/04/20 08:43:00;;;;;;;35.25;21.73;;;;;;;11.84;64.46;98566.44;4991423;28;20034;-75
2021/04/20 08:45:32;;;;;;;29.92;18.05;;;;;;;11.87;62.91;98565.47;4970067;28;20097;-76
2021/04/20 08:48:22;;;;;;;28.88;18.20;;;;;;;12.30;60.87;98572.28;4972151;28;20026;-75
2021/04/20 08:51:12;;;;;;;33.60;20.13;;;;;;;12.14;61.78;98566.00;4987884;28;20058;-76
2021/04/20 08:53:58;;;;;;;32.75;17.42;;;;;;;12.54;59.01;98559.81;4988587;28;20105;-75
2021/04/20 08:56:43;;;;;;;31.67;18.33;;;;;;;12.54;59.17;98568.53;4987627;28;20057;-75
2021/04/20 08:59:29;;;;;;;29.85;18.27;;;;;;;12.74;58.68;98562.38;4981480;28;20034;-77
2021/04/20 09:01:57;;;;;;;31.23;18.75;;;;;;;13.14;58.19;98561.31;4987210;28;20042;-76
2021/04/20 09:05:00;;;;;;;30.63;18.98;;;;;;;13.34;57.59;98552.47;4985441;28;20042;-77
2021/04/20 09:07:50;;;;;;;29.55;17.67;;;;;;;13.42;57.02;98550.34;4980412;28;20333;-76
2021/04/20 09:10:22;;;;;;;30.25;19.50;;;;;;;12.53;59.09;98553.72;4988126;28;20037;-76
2021/04/20 09:12:56;;;;;;;32.97;19.77;;;;;;;12.94;59.29;98551.78;4985264;28;20125;-77
2021/04/20 09:15:25;;;;;;;27.27;17.17;;;;;;;13.70;56.90;98547.16;4985956;28;20037;-75
2021/04/20 09:17:55;;;;;;;27.80;17.92;;;;;;;13.98;55.49;98546.59;4982630;28;20527;-77
2021/04/20 09:20:28;;;;;;;31.63;18.60;;;;;;;13.97;55.27;98545.75;4973164;28;20041;-78
2021/04/20 09:23:12;;;;;;;29.67;17.25;;;;;;;14.47;53.86;98550.13;4978426;28;20053;-78
2021/04/20 09:25:47;;;;;;;27.42;18.13;;;;;;;14.55;53.78;98547.06;4988746;28;20037;-78
2021/04/20 09:28:23;;;;;;;28.83;17.73;;;;;;;14.65;53.50;98537.75;4993639;28;20030;-73
2021/04/20 09:30:53;;;;;;;27.45;15.75;;;;;;;14.85;51.88;98537.47;4985014;28;20123;-71
2021/04/20 09:33:21;;;;;;;27.75;17.98;;;;;;;14.66;51.72;98534.19;4980250;28;20483;-71
2021/04/20 09:35:50;;;;;;;27.65;17.63;;;;;;;14.49;54.49;98534.25;4986884;28;20030;-71
2021/04/20 09:38:17;;;;;;;27.55;17.83;;;;;;;15.21;51.76;98531.91;4985795;28;20485;-72
2021/04/20 09:40:45;;;;;;;28.15;18.17;;;;;;;14.49;54.03;98527.22;4989724;28;20034;-72
2021/04/20 09:43:30;;;;;;;28.92;17.92;;;;;;;14.86;53.99;98533.91;4989689;28;20038;-70
2021/04/20 09:46:12;;;;;;;28.60;17.65;;;;;;;15.04;51.60;98526.75;4985445;28;20038;-70
2021/04/20 09:48:50;;;;;;;29.38;17.80;;;;;;;15.11;52.28;98521.06;4983587;28;20030;-70
2021/04/20 09:51:22;;;;;;;28.50;16.67;;;;;;;15.25;51.45;98529.97;4990997;28;20037;-70
2021/04/20 09:54:35;;;;;;;24.67;16.33;;;;;;;15.34;50.47;98525.00;4989715;28;20041;-71
2021/04/20 09:57:06;;;;;;;25.13;16.55;;;;;;;15.33;51.30;98525.09;4928550;29;20059;-70
2021/04/20 09:59:46;;;;;;;30.42;17.27;;;;;;;15.77;51.40;98525.13;4981265;28;20048;-71
2021/04/20 10:02:45;;;;;;;27.67;16.58;;;;;;;16.11;48.18;98530.06;4988507;28;20452;-71
2021/04/20 10:05:37;;;;;;;28.08;16.73;;;;;;;16.82;47.05;98522.09;4989928;28;20026;-70
2021/04/20 10:08:17;;;;;;;20.83;14.18;;;;;;;17.07;45.28;98517.88;4978964;28;20046;-71
2021/04/20 10:11:03;;;;;;;23.23;14.45;;;;;;;17.16;44.94;98512.81;4988596;28;20029;-70
2021/04/20 10:13:51;;;;;;;22.50;13.50;;;;;;;17.40;44.60;98515.66;4986748;28;20365;-71
2021/04/20 10:16:32;;;;;;;22.40;14.40;;;;;;;16.20;47.13;98520.72;4953608;28;20063;-70
2021/04/20 10:19:22;;;;;;;20.27;13.63;;;;;;;17.23;44.62;98510.63;4970781;28;20026;-71
2021/04/20 10:22:17;;;;;;;21.27;14.07;;;;;;;18.08;42.87;98509.28;4982544;28;20089;-71
2021/04/20 10:24:51;;;;;;;21.55;13.93;;;;;;;17.76;43.08;98507.06;4986221;28;20499;-71
2021/04/20 10:27:21;;;;;;;22.58;14.07;;;;;;;17.92;41.84;98507.69;4976350;28;20033;-70
2021/04/20 10:30:11;;;;;;;19.35;12.90;;;;;;;16.88;44.21;98500.56;4990253;28;20026;-72
2021/04/20 10:32:45;;;;;;;22.65;14.13;;;;;;;15.51;46.34;98504.72;4991107;28;20037;-71
2021/04/20 10:35:18;;;;;;;22.85;12.75;;;;;;;15.17;48.67;98511.09;4989846;28;20121;-70
2021/04/20 10:37:47;;;;;;;24.95;14.43;;;;;;;14.90;49.22;98505.63;4989670;28;20105;-71
2021/04/20 10:40:15;;;;;;;19.65;12.63;;;;;;;16.83;44.80;98496.53;4990143;28;20026;-70
2021/04/20 10:42:48;;;;;;;20.50;13.35;;;;;;;17.81;41.79;98482.94;4989028;28;20476;-71
2021/04/20 10:45:15;;;;;;;20.60;13.32;;;;;;;18.23;40.04;98490.53;4986650;28;20034;-70
2021/04/20 10:47:46;;;;;;;19.05;12.43;;;;;;;18.68;39.38;98482.94;4989090;28;20089;-70
2021/04/20 10:50:20;;;;;;;20.20;12.85;;;;;;;18.43;39.13;98477.69;4987952;28;20113;-70
2021/04/20 10:52:46;;;;;;;24.13;14.27;;;;;;;18.01;40.41;98476.28;4984945;28;20030;-71
2021/04/20 10:55:14;;;;;;;24.15;12.30;;;;;;;18.19;40.47;98474.97;4984873;28;20671;-71
2021/04/20 10:57:44;;;;;;;;;;;;;;;18.42;38.84;98476.84;4991386;28;20783;-72
2021/04/20 11:00:13;;;;;;;21.67;11.45;;;;;;;17.64;40.46;98473.50;4989369;28;19956;-71
2021/04/20 11:02:42;;;;;;;16.88;10.88;;;;;;;18.03;39.47;98479.63;4987395;28;20488;-71
2021/04/20 11:05:09;;;;;;;20.95;12.80;;;;;;;16.74;42.68;98468.94;4985746;28;20476;-71
2021/04/20 11:07:45;;;;;;;17.35;12.15;;;;;;;18.80;37.85;98465.28;4987055;28;20093;-71
2021/04/20 11:10:12;;;;;;;21.58;13.43;;;;;;;19.18;38.06;98457.16;4989641;28;20100;-70
2021/04/20 11:12:49;;;;;;;20.17;12.57;;;;;;;18.08;38.39;98459.84;4988636;28;20026;-70
2021/04/20 11:15:25;;;;;;;19.20;11.98;;;;;;;17.40;42.64;98461.94;4988286;28;20096;-71
2021/04/20 11:17:53;;;;;;;20.20;12.90;;;;;;;17.29;42.43;98464.44;4987936;28;20030;-71
2021/04/20 11:20:37;;;;;;;21.20;12.63;;;;;;;16.53;44.51;98463.19;4985769;28;20045;-71
2021/04/20 11:23:09;;;;;;;20.27;13.20;;;;;;;16.92;42.96;98460.75;4985948;28;20488;-71
2021/04/20 11:25:46;;;;;;;21.95;13.43;;;;;;;16.81;43.66;98459.63;4985676;28;20034;-71
2021/04/20 11:28:29;;;;;;;18.33;12.85;;;;;;;15.83;44.90;98470.25;4986138;28;20049;-71
2021/04/20 11:30:59;;;;;;;17.88;12.10;;;;;;;16.61;44.64;98451.31;4985725;28;20093;-70
2021/04/20 11:33:34;;;;;;;19.02;12.05;;;;;;;17.17;43.22;98445.81;4987143;28;20447;-70
2021/04/20 11:36:02;;;;;;;17.90;12.05;;;;;;;17.71;41.26;98448.34;4984079;28;20045;-70
2021/04/20 11:38:38;;;;;;;17.83;12.32;;;;;;;19.59;38.66;98446.09;4984425;28;20484;-72
2021/04/20 11:41:05;;;;;;;17.52;11.73;;;;;;;18.66;39.72;98442.44;4986991;28;20029;-70
2021/04/20 11:43:32;;;;;;;17.80;12.27;;;;;;;18.36;39.30;98439.34;4987426;28;20600;-71